sensor_id;sensor_type;location;lat;lon;timestamp;pressure;altitude;pressure_sealevel;temperature;humidity
74905;BME280;63465;50.862;6.220;2023-04-24T00:01:48;98514.19;;;10.11;87.00
74905;BME280;63465;50.862;6.220;2023-04-24T00:04:13;98523.91;;;10.10;87.68
74905;BME280;63465;50.862;6.220;2023-04-24T00:06:41;98523.28;;;10.07;88.31
74905;BME280;63465;50.862;6.220;2023-04-24T00:09:07;98529.78;;;10.15;88.10
74905;BME280;63465;50.862;6.220;2023-04-24T00:11:35;98521.94;;;10.14;88.44
74905;BME280;63465;50.862;6.220;2023-04-24T00:14:00;98521.94;;;10.14;86.73
74905;BME280;63465;50.862;6.220;2023-04-24T00:16:26;98525.59;;;9.98;83.14
74905;BME280;63465;50.862;6.220;2023-04-24T00:18:51;98519.94;;;9.90;83.10
74905;BME280;63465;50.862;6.220;2023-04-24T00:21:21;98531.66;;;9.86;83.51
74905;BME280;63465;50.862;6.220;2023-04-24T00:23:47;98523.34;;;9.92;83.71
74905;BME280;63465;50.862;6.220;2023-04-24T00:26:12;98527.25;;;9.72;83.86
74905;BME280;63465;50.862;6.220;2023-04-24T00:28:37;98539.66;;;9.72;84.24
74905;BME280;63465;50.862;6.220;2023-04-24T00:31:03;98515.59;;;9.62;84.63
74905;BME280;63465;50.862;6.220;2023-04-24T00:33:28;98530.06;;;9.56;85.11
74905;BME280;63465;50.862;6.220;2023-04-24T00:35:53;98542.25;;;9.44;85.79
74905;BME280;63465;50.862;6.220;2023-04-24T00:38:19;98546.66;;;9.31;86.56
74905;BME280;63465;50.862;6.220;2023-04-24T00:40:44;98533.31;;;9.18;87.18
74905;BME280;63465;50.862;6.220;2023-04-24T00:43:10;98553.16;;;9.11;87.78
74905;BME280;63465;50.862;6.220;2023-04-24T00:45:35;98543.44;;;9.12;87.83
74905;BME280;63465;50.862;6.220;2023-04-24T00:48:01;98543.53;;;9.10;88.23
74905;BME280;63465;50.862;6.220;2023-04-24T00:50:28;98548.59;;;8.99;88.46
74905;BME280;63465;50.862;6.220;2023-04-24T00:52:53;98553.91;;;8.99;88.38
74905;BME280;63465;50.862;6.220;2023-04-24T00:55:19;98549.19;;;9.04;88.76
74905;BME280;63465;50.862;6.220;2023-04-24T00:57:45;98547.31;;;9.06;88.41
74905;BME280;63465;50.862;6.220;2023-04-24T01:00:12;98554.19;;;8.94;88.77
74905;BME280;63465;50.862;6.220;2023-04-24T01:02:39;98551.34;;;8.97;88.98
74905;BME280;63465;50.862;6.220;2023-04-24T01:05:09;98538.41;;;8.92;89.23
74905;BME280;63465;50.862;6.220;2023-04-24T01:07:34;98528.88;;;9.04;88.90
74905;BME280;63465;50.862;6.220;2023-04-24T01:10:00;98536.91;;;8.88;89.75
74905;BME280;63465;50.862;6.220;2023-04-24T01:12:26;98531.72;;;8.87;89.76
74905;BME280;63465;50.862;6.220;2023-04-24T01:14:51;98529.34;;;8.82;90.21
74905;BME280;63465;50.862;6.220;2023-04-24T01:17:17;98529.53;;;8.79;90.54
74905;BME280;63465;50.862;6.220;2023-04-24T01:19:42;98526.69;;;8.82;90.65
74905;BME280;63465;50.862;6.220;2023-04-24T01:22:15;98532.19;;;8.79;90.70
74905;BME280;63465;50.862;6.220;2023-04-24T01:24:42;98534.53;;;8.84;90.73
74905;BME280;63465;50.862;6.220;2023-04-24T01:27:08;98548.78;;;8.81;90.96
74905;BME280;63465;50.862;6.220;2023-04-24T01:29:35;98538.03;;;8.84;91.13
74905;BME280;63465;50.862;6.220;2023-04-24T01:32:01;98536.72;;;8.91;91.30
74905;BME280;63465;50.862;6.220;2023-04-24T01:34:27;98538.78;;;8.86;91.29
74905;BME280;63465;50.862;6.220;2023-04-24T01:36:52;98547.69;;;8.85;91.24
74905;BME280;63465;50.862;6.220;2023-04-24T01:39:17;98532.66;;;8.86;91.08
74905;BME280;63465;50.862;6.220;2023-04-24T01:41:45;98531.63;;;8.88;90.90
74905;BME280;63465;50.862;6.220;2023-04-24T01:44:11;98539.28;;;8.93;90.60
74905;BME280;63465;50.862;6.220;2023-04-24T01:46:36;98532.09;;;8.95;90.27
74905;BME280;63465;50.862;6.220;2023-04-24T01:49:02;98542.00;;;8.91;90.45
74905;BME280;63465;50.862;6.220;2023-04-24T01:51:27;98540.03;;;8.95;90.37
74905;BME280;63465;50.862;6.220;2023-04-24T01:53:53;98537.47;;;8.93;89.96
74905;BME280;63465;50.862;6.220;2023-04-24T01:56:20;98542.09;;;8.90;90.12
74905;BME280;63465;50.862;6.220;2023-04-24T01:58:46;98536.44;;;8.96;90.08
74905;BME280;63465;50.862;6.220;2023-04-24T02:01:18;98521.69;;;8.92;90.02
74905;BME280;63465;50.862;6.220;2023-04-24T02:03:44;98522.72;;;8.89;90.14
74905;BME280;63465;50.862;6.220;2023-04-24T02:06:09;98526.13;;;8.91;90.42
74905;BME280;63465;50.862;6.220;2023-04-24T02:08:34;98532.19;;;8.93;89.87
74905;BME280;63465;50.862;6.220;2023-04-24T02:10:59;98524.06;;;8.82;90.03
74905;BME280;63465;50.862;6.220;2023-04-24T02:13:26;98534.44;;;8.85;89.87
74905;BME280;63465;50.862;6.220;2023-04-24T02:15:52;98531.81;;;8.85;90.15
74905;BME280;63465;50.862;6.220;2023-04-24T02:18:17;98530.75;;;8.88;90.33
74905;BME280;63465;50.862;6.220;2023-04-24T02:20:42;98533.75;;;8.82;90.41
74905;BME280;63465;50.862;6.220;2023-04-24T02:23:08;98533.66;;;8.83;90.42
74905;BME280;63465;50.862;6.220;2023-04-24T02:25:33;98526.19;;;8.75;90.72
74905;BME280;63465;50.862;6.220;2023-04-24T02:27:58;98542.66;;;8.81;90.47
74905;BME280;63465;50.862;6.220;2023-04-24T02:30:23;98518.84;;;8.81;90.46
74905;BME280;63465;50.862;6.220;2023-04-24T02:32:49;98519.97;;;8.77;90.66
74905;BME280;63465;50.862;6.220;2023-04-24T02:35:14;98522.53;;;8.78;90.60
74905;BME280;63465;50.862;6.220;2023-04-24T02:37:40;98530.47;;;8.78;90.98
74905;BME280;63465;50.862;6.220;2023-04-24T02:40:05;98523.66;;;8.74;91.11
74905;BME280;63465;50.862;6.220;2023-04-24T02:42:31;98522.53;;;8.78;91.01
74905;BME280;63465;50.862;6.220;2023-04-24T02:44:56;98520.91;;;8.75;91.27
74905;BME280;63465;50.862;6.220;2023-04-24T02:47:21;98529.91;;;8.73;91.06
74905;BME280;63465;50.862;6.220;2023-04-24T02:49:47;98526.88;;;8.79;90.95
74905;BME280;63465;50.862;6.220;2023-04-24T02:52:12;98518.56;;;8.71;91.39
74905;BME280;63465;50.862;6.220;2023-04-24T02:54:38;98514.22;;;8.70;91.25
74905;BME280;63465;50.862;6.220;2023-04-24T02:57:03;98510.91;;;8.66;91.30
74905;BME280;63465;50.862;6.220;2023-04-24T02:59:28;98518.63;;;8.69;91.50
74905;BME280;63465;50.862;6.220;2023-04-24T03:01:54;98528.19;;;8.72;91.45
74905;BME280;63465;50.862;6.220;2023-04-24T03:04:19;98527.44;;;8.70;91.47
74905;BME280;63465;50.862;6.220;2023-04-24T03:06:45;98537.25;;;8.68;91.56
74905;BME280;63465;50.862;6.220;2023-04-24T03:09:11;98520.44;;;8.69;91.76
74905;BME280;63465;50.862;6.220;2023-04-24T03:11:36;98535.28;;;8.71;92.18
74905;BME280;63465;50.862;6.220;2023-04-24T03:14:01;98533.38;;;8.73;92.16
74905;BME280;63465;50.862;6.220;2023-04-24T03:16:27;98536.13;;;8.57;93.03
74905;BME280;63465;50.862;6.220;2023-04-24T03:18:52;98532.13;;;8.65;93.25
74905;BME280;63465;50.862;6.220;2023-04-24T03:21:18;98534.03;;;8.63;93.00
74905;BME280;63465;50.862;6.220;2023-04-24T03:23:43;98530.56;;;8.62;92.70
74905;BME280;63465;50.862;6.220;2023-04-24T03:26:08;98541.97;;;8.63;92.64
74905;BME280;63465;50.862;6.220;2023-04-24T03:28:33;98537.25;;;8.68;92.21
74905;BME280;63465;50.862;6.220;2023-04-24T03:30:59;98541.78;;;8.66;92.40
74905;BME280;63465;50.862;6.220;2023-04-24T03:33:24;98548.97;;;8.64;92.76
74905;BME280;63465;50.862;6.220;2023-04-24T03:35:50;98547.25;;;8.63;92.38
74905;BME280;63465;50.862;6.220;2023-04-24T03:38:15;98541.13;;;8.62;92.41
74905;BME280;63465;50.862;6.220;2023-04-24T03:40:40;98532.69;;;8.55;92.66
74905;BME280;63465;50.862;6.220;2023-04-24T03:43:06;98538.06;;;8.54;92.72
74905;BME280;63465;50.862;6.220;2023-04-24T03:45:31;98540.91;;;8.51;92.90
74905;BME280;63465;50.862;6.220;2023-04-24T03:47:56;98530.69;;;8.45;93.22
74905;BME280;63465;50.862;6.220;2023-04-24T03:50:22;98532.50;;;8.44;93.33
74905;BME280;63465;50.862;6.220;2023-04-24T03:52:47;98532.50;;;8.44;93.34
74905;BME280;63465;50.862;6.220;2023-04-24T03:55:12;98532.72;;;8.39;93.41
74905;BME280;63465;50.862;6.220;2023-04-24T03:57:40;98523.34;;;8.34;93.83
74905;BME280;63465;50.862;6.220;2023-04-24T04:00:06;98548.84;;;8.35;94.12
74905;BME280;63465;50.862;6.220;2023-04-24T04:02:31;98534.84;;;8.33;94.20
74905;BME280;63465;50.862;6.220;2023-04-24T04:04:56;98531.28;;;8.34;93.70
74905;BME280;63465;50.862;6.220;2023-04-24T04:07:22;98541.75;;;8.35;94.21
74905;BME280;63465;50.862;6.220;2023-04-24T04:09:47;98538.66;;;8.29;94.73
74905;BME280;63465;50.862;6.220;2023-04-24T04:12:12;98536.34;;;8.23;95.35
74905;BME280;63465;50.862;6.220;2023-04-24T04:14:38;98543.69;;;8.17;96.32
74905;BME280;63465;50.862;6.220;2023-04-24T04:17:03;98549.84;;;8.18;96.18
74905;BME280;63465;50.862;6.220;2023-04-24T04:19:28;98544.72;;;8.15;96.33
74905;BME280;63465;50.862;6.220;2023-04-24T04:21:53;98556.91;;;8.17;96.57
74905;BME280;63465;50.862;6.220;2023-04-24T04:24:21;98557.84;;;8.16;96.68
74905;BME280;63465;50.862;6.220;2023-04-24T04:26:47;98551.44;;;8.20;96.68
74905;BME280;63465;50.862;6.220;2023-04-24T04:29:16;98566.53;;;8.18;96.99
74905;BME280;63465;50.862;6.220;2023-04-24T04:31:41;98553.59;;;8.14;98.04
74905;BME280;63465;50.862;6.220;2023-04-24T04:34:06;98561.69;;;8.11;98.79
74905;BME280;63465;50.862;6.220;2023-04-24T04:36:33;98573.09;;;8.11;99.29
74905;BME280;63465;50.862;6.220;2023-04-24T04:39:02;98563.66;;;8.07;100.00
74905;BME280;63465;50.862;6.220;2023-04-24T04:41:28;98574.41;;;8.04;100.00
74905;BME280;63465;50.862;6.220;2023-04-24T04:43:53;98581.09;;;8.10;100.00
74905;BME280;63465;50.862;6.220;2023-04-24T04:46:18;98577.06;;;8.04;100.00
74905;BME280;63465;50.862;6.220;2023-04-24T04:48:44;98584.00;;;8.05;100.00
74905;BME280;63465;50.862;6.220;2023-04-24T04:51:09;98580.97;;;7.97;100.00
74905;BME280;63465;50.862;6.220;2023-04-24T04:53:35;98586.25;;;7.97;100.00
74905;BME280;63465;50.862;6.220;2023-04-24T04:56:00;98598.88;;;7.92;100.00
74905;BME280;63465;50.862;6.220;2023-04-24T04:58:25;98589.31;;;7.89;100.00
74905;BME280;63465;50.862;6.220;2023-04-24T05:00:51;98603.53;;;7.86;100.00
74905;BME280;63465;50.862;6.220;2023-04-24T05:03:17;98602.44;;;7.91;100.00
74905;BME280;63465;50.862;6.220;2023-04-24T05:05:42;98617.59;;;7.87;100.00
74905;BME280;63465;50.862;6.220;2023-04-24T05:08:08;98606.63;;;7.95;100.00
74905;BME280;63465;50.862;6.220;2023-04-24T05:10:33;98603.44;;;7.88;100.00
74905;BME280;63465;50.862;6.220;2023-04-24T05:12:59;98599.00;;;7.89;100.00
74905;BME280;63465;50.862;6.220;2023-04-24T05:15:24;98597.41;;;7.86;100.00
74905;BME280;63465;50.862;6.220;2023-04-24T05:17:49;98599.97;;;7.88;100.00
74905;BME280;63465;50.862;6.220;2023-04-24T05:20:15;98599.97;;;7.88;100.00
74905;BME280;63465;50.862;6.220;2023-04-24T05:22:40;98604.28;;;7.89;100.00
74905;BME280;63465;50.862;6.220;2023-04-24T05:25:06;98591.84;;;8.07;100.00
74905;BME280;63465;50.862;6.220;2023-04-24T05:27:31;98601.94;;;8.00;100.00
74905;BME280;63465;50.862;6.220;2023-04-24T05:29:56;98594.41;;;8.08;100.00
74905;BME280;63465;50.862;6.220;2023-04-24T05:32:22;98607.22;;;8.00;100.00
74905;BME280;63465;50.862;6.220;2023-04-24T05:34:47;98599.00;;;7.89;100.00
74905;BME280;63465;50.862;6.220;2023-04-24T05:37:12;98609.91;;;7.82;100.00
74905;BME280;63465;50.862;6.220;2023-04-24T05:39:38;98595.19;;;7.78;100.00
74905;BME280;63465;50.862;6.220;2023-04-24T05:42:03;98603.97;;;7.79;100.00
74905;BME280;63465;50.862;6.220;2023-04-24T05:44:30;98608.41;;;7.78;100.00
74905;BME280;63465;50.862;6.220;2023-04-24T05:46:55;98615.72;;;7.73;100.00
74905;BME280;63465;50.862;6.220;2023-04-24T05:49:21;98610.75;;;7.67;100.00
74905;BME280;63465;50.862;6.220;2023-04-24T05:51:46;98626.53;;;7.68;100.00
74905;BME280;63465;50.862;6.220;2023-04-24T05:54:11;98630.97;;;7.68;100.00
74905;BME280;63465;50.862;6.220;2023-04-24T05:56:37;98636.06;;;7.55;100.00
74905;BME280;63465;50.862;6.220;2023-04-24T05:59:02;98641.41;;;7.54;100.00
74905;BME280;63465;50.862;6.220;2023-04-24T06:01:28;98641.69;;;7.65;100.00
74905;BME280;63465;50.862;6.220;2023-04-24T06:03:54;98646.53;;;7.57;100.00
74905;BME280;63465;50.862;6.220;2023-04-24T06:06:20;98650.25;;;7.53;100.00
74905;BME280;63465;50.862;6.220;2023-04-24T06:08:45;98656.94;;;7.60;100.00
74905;BME280;63465;50.862;6.220;2023-04-24T06:11:11;98659.16;;;7.67;100.00
74905;BME280;63465;50.862;6.220;2023-04-24T06:13:36;98647.06;;;7.63;100.00
74905;BME280;63465;50.862;6.220;2023-04-24T06:16:01;98652.84;;;7.70;100.00
74905;BME280;63465;50.862;6.220;2023-04-24T06:18:27;98657.00;;;7.58;100.00
74905;BME280;63465;50.862;6.220;2023-04-24T06:20:52;98655.97;;;7.61;100.00
74905;BME280;63465;50.862;6.220;2023-04-24T06:23:17;98667.00;;;7.69;100.00
74905;BME280;63465;50.862;6.220;2023-04-24T06:25:43;98662.72;;;7.66;100.00
74905;BME280;63465;50.862;6.220;2023-04-24T06:28:08;98674.84;;;7.71;100.00
74905;BME280;63465;50.862;6.220;2023-04-24T06:30:33;98686.41;;;7.68;100.00
74905;BME280;63465;50.862;6.220;2023-04-24T06:32:58;98683.50;;;7.73;100.00
74905;BME280;63465;50.862;6.220;2023-04-24T06:35:24;98688.38;;;7.80;100.00
74905;BME280;63465;50.862;6.220;2023-04-24T06:37:49;98688.72;;;7.74;100.00
74905;BME280;63465;50.862;6.220;2023-04-24T06:40:15;98700.19;;;7.73;100.00
74905;BME280;63465;50.862;6.220;2023-04-24T06:42:40;98699.28;;;7.74;100.00
74905;BME280;63465;50.862;6.220;2023-04-24T06:45:06;98706.28;;;7.91;100.00
74905;BME280;63465;50.862;6.220;2023-04-24T06:47:31;98708.16;;;7.89;100.00
74905;BME280;63465;50.862;6.220;2023-04-24T06:49:57;98703.47;;;7.78;100.00
74905;BME280;63465;50.862;6.220;2023-04-24T06:52:22;98725.25;;;7.66;100.00
74905;BME280;63465;50.862;6.220;2023-04-24T06:54:48;98725.09;;;7.69;100.00
74905;BME280;63465;50.862;6.220;2023-04-24T06:57:13;98716.34;;;7.51;100.00
74905;BME280;63465;50.862;6.220;2023-04-24T06:59:38;98727.75;;;7.52;100.00
74905;BME280;63465;50.862;6.220;2023-04-24T07:02:04;98737.00;;;7.43;100.00
74905;BME280;63465;50.862;6.220;2023-04-24T07:04:30;98746.44;;;7.47;100.00
74905;BME280;63465;50.862;6.220;2023-04-24T07:06:56;98746.84;;;7.39;100.00
74905;BME280;63465;50.862;6.220;2023-04-24T07:09:23;98749.72;;;7.52;100.00
74905;BME280;63465;50.862;6.220;2023-04-24T07:11:49;98753.69;;;7.43;100.00
74905;BME280;63465;50.862;6.220;2023-04-24T07:14:15;98758.84;;;7.29;100.00
74905;BME280;63465;50.862;6.220;2023-04-24T07:16:40;98759.81;;;7.26;100.00
74905;BME280;63465;50.862;6.220;2023-04-24T07:19:06;98764.78;;;7.32;100.00
74905;BME280;63465;50.862;6.220;2023-04-24T07:21:31;98758.84;;;7.29;100.00
74905;BME280;63465;50.862;6.220;2023-04-24T07:24:00;98760.50;;;7.30;100.00
74905;BME280;63465;50.862;6.220;2023-04-24T07:26:26;98772.09;;;7.45;100.00
74905;BME280;63465;50.862;6.220;2023-04-24T07:28:52;98771.09;;;7.47;100.00
74905;BME280;63465;50.862;6.220;2023-04-24T07:31:17;98774.97;;;7.40;100.00
74905;BME280;63465;50.862;6.220;2023-04-24T07:33:43;98782.81;;;7.24;100.00
74905;BME280;63465;50.862;6.220;2023-04-24T07:36:08;98786.81;;;7.31;100.00
74905;BME280;63465;50.862;6.220;2023-04-24T07:38:40;98792.75;;;7.37;100.00
74905;BME280;63465;50.862;6.220;2023-04-24T07:41:05;98802.13;;;7.42;100.00
74905;BME280;63465;50.862;6.220;2023-04-24T07:43:30;98803.03;;;7.24;100.00
74905;BME280;63465;50.862;6.220;2023-04-24T07:45:56;98811.13;;;7.21;100.00
74905;BME280;63465;50.862;6.220;2023-04-24T07:48:21;98807.56;;;7.39;100.00
74905;BME280;63465;50.862;6.220;2023-04-24T07:50:47;98817.09;;;7.24;100.00
74905;BME280;63465;50.862;6.220;2023-04-24T07:53:12;98830.16;;;7.27;100.00
74905;BME280;63465;50.862;6.220;2023-04-24T07:55:37;98834.00;;;7.20;100.00
74905;BME280;63465;50.862;6.220;2023-04-24T07:58:03;98839.97;;;7.24;100.00
74905;BME280;63465;50.862;6.220;2023-04-24T08:00:29;98853.81;;;7.29;100.00
74905;BME280;63465;50.862;6.220;2023-04-24T08:02:54;98851.28;;;7.08;100.00
74905;BME280;63465;50.862;6.220;2023-04-24T08:05:19;98856.56;;;7.08;100.00
74905;BME280;63465;50.862;6.220;2023-04-24T08:07:45;98862.31;;;7.17;100.00
74905;BME280;63465;50.862;6.220;2023-04-24T08:10:13;98871.94;;;7.18;100.00
74905;BME280;63465;50.862;6.220;2023-04-24T08:12:39;98876.44;;;7.16;100.00
74905;BME280;63465;50.862;6.220;2023-04-24T08:15:05;98857.09;;;7.15;100.00
74905;BME280;63465;50.862;6.220;2023-04-24T08:17:30;98877.06;;;7.21;100.00
74905;BME280;63465;50.862;6.220;2023-04-24T08:19:55;98875.47;;;7.36;100.00
74905;BME280;63465;50.862;6.220;2023-04-24T08:22:28;98873.44;;;7.41;100.00
74905;BME280;63465;50.862;6.220;2023-04-24T08:24:54;98875.09;;;7.26;100.00
74905;BME280;63465;50.862;6.220;2023-04-24T08:27:21;98903.66;;;7.35;100.00
74905;BME280;63465;50.862;6.220;2023-04-24T08:29:46;98908.28;;;7.30;100.00
74905;BME280;63465;50.862;6.220;2023-04-24T08:32:11;98899.59;;;7.28;100.00
74905;BME280;63465;50.862;6.220;2023-04-24T08:34:37;98911.50;;;7.37;100.00
74905;BME280;63465;50.862;6.220;2023-04-24T08:37:03;98911.81;;;7.48;100.00
74905;BME280;63465;50.862;6.220;2023-04-24T08:39:28;98914.38;;;7.49;100.00
74905;BME280;63465;50.862;6.220;2023-04-24T08:41:55;98926.38;;;7.38;100.00
74905;BME280;63465;50.862;6.220;2023-04-24T08:44:20;98930.13;;;7.34;100.00
74905;BME280;63465;50.862;6.220;2023-04-24T08:46:47;98941.22;;;7.40;100.00
74905;BME280;63465;50.862;6.220;2023-04-24T08:49:14;98944.78;;;7.39;100.00
74905;BME280;63465;50.862;6.220;2023-04-24T08:51:41;98943.72;;;7.43;100.00
74905;BME280;63465;50.862;6.220;2023-04-24T08:54:07;98945.53;;;7.60;100.00
74905;BME280;63465;50.862;6.220;2023-04-24T08:56:33;98941.03;;;7.62;100.00
74905;BME280;63465;50.862;6.220;2023-04-24T08:58:59;98965.91;;;7.58;100.00
74905;BME280;63465;50.862;6.220;2023-04-24T09:01:24;98959.03;;;7.54;100.00
74905;BME280;63465;50.862;6.220;2023-04-24T09:03:51;98962.66;;;7.52;100.00
74905;BME280;63465;50.862;6.220;2023-04-24T09:06:19;98964.16;;;7.57;100.00
74905;BME280;63465;50.862;6.220;2023-04-24T09:08:45;98968.38;;;7.61;100.00
74905;BME280;63465;50.862;6.220;2023-04-24T09:11:11;98966.59;;;7.62;100.00
74905;BME280;63465;50.862;6.220;2023-04-24T09:13:37;98981.94;;;7.54;100.00
74905;BME280;63465;50.862;6.220;2023-04-24T09:16:02;98977.69;;;7.68;100.00
74905;BME280;63465;50.862;6.220;2023-04-24T09:18:28;98978.56;;;7.69;100.00
74905;BME280;63465;50.862;6.220;2023-04-24T09:20:57;98977.91;;;7.64;100.00
74905;BME280;63465;50.862;6.220;2023-04-24T09:23:26;98994.56;;;7.47;100.00
74905;BME280;63465;50.862;6.220;2023-04-24T09:25:54;98994.72;;;7.63;100.00
74905;BME280;63465;50.862;6.220;2023-04-24T09:28:25;99000.13;;;7.60;100.00
74905;BME280;63465;50.862;6.220;2023-04-24T09:31:08;99001.81;;;7.80;100.00
74905;BME280;63465;50.862;6.220;2023-04-24T09:33:34;98999.28;;;8.13;100.00
74905;BME280;63465;50.862;6.220;2023-04-24T09:36:00;99003.31;;;8.20;100.00
74905;BME280;63465;50.862;6.220;2023-04-24T09:38:38;99008.13;;;8.12;100.00
74905;BME280;63465;50.862;6.220;2023-04-24T09:41:07;99013.72;;;8.06;100.00
74905;BME280;63465;50.862;6.220;2023-04-24T09:43:34;99002.38;;;8.21;100.00
74905;BME280;63465;50.862;6.220;2023-04-24T09:46:06;99018.94;;;8.25;100.00
74905;BME280;63465;50.862;6.220;2023-04-24T09:48:33;99013.31;;;8.50;100.00
74905;BME280;63465;50.862;6.220;2023-04-24T09:51:00;99029.59;;;8.41;100.00
74905;BME280;63465;50.862;6.220;2023-04-24T09:53:27;99024.97;;;8.64;100.00
74905;BME280;63465;50.862;6.220;2023-04-24T09:55:53;99034.84;;;8.93;100.00
74905;BME280;63465;50.862;6.220;2023-04-24T09:58:24;99030.41;;;9.27;100.00
74905;BME280;63465;50.862;6.220;2023-04-24T10:00:49;99027.59;;;9.62;100.00
74905;BME280;63465;50.862;6.220;2023-04-24T10:03:18;99023.75;;;9.52;100.00
74905;BME280;63465;50.862;6.220;2023-04-24T10:05:46;99029.88;;;9.85;100.00
74905;BME280;63465;50.862;6.220;2023-04-24T10:08:12;99027.44;;;9.50;100.00
74905;BME280;63465;50.862;6.220;2023-04-24T10:10:41;99036.97;;;9.52;100.00
74905;BME280;63465;50.862;6.220;2023-04-24T10:13:09;99028.31;;;9.17;100.00
74905;BME280;63465;50.862;6.220;2023-04-24T10:15:35;99038.97;;;8.99;100.00
74905;BME280;63465;50.862;6.220;2023-04-24T10:18:01;99045.69;;;8.89;100.00
74905;BME280;63465;50.862;6.220;2023-04-24T10:20:29;99044.16;;;8.67;100.00
74905;BME280;63465;50.862;6.220;2023-04-24T10:22:58;99047.59;;;8.52;100.00
74905;BME280;63465;50.862;6.220;2023-04-24T10:25:34;99051.00;;;8.71;100.00
74905;BME280;63465;50.862;6.220;2023-04-24T10:28:00;99045.00;;;8.85;100.00
74905;BME280;63465;50.862;6.220;2023-04-24T10:30:28;99056.03;;;8.93;100.00
74905;BME280;63465;50.862;6.220;2023-04-24T10:32:54;99054.69;;;9.36;100.00
74905;BME280;63465;50.862;6.220;2023-04-24T10:35:20;99062.69;;;10.14;100.00
74905;BME280;63465;50.862;6.220;2023-04-24T10:38:03;99067.59;;;11.11;92.12
74905;BME280;63465;50.862;6.220;2023-04-24T10:40:32;99060.56;;;11.81;91.45
74905;BME280;63465;50.862;6.220;2023-04-24T10:43:05;99068.38;;;12.25;89.72
74905;BME280;63465;50.862;6.220;2023-04-24T10:45:36;99070.16;;;12.25;91.41
74905;BME280;63465;50.862;6.220;2023-04-24T10:48:03;99082.47;;;11.14;92.20
74905;BME280;63465;50.862;6.220;2023-04-24T10:50:41;99070.91;;;11.15;91.97
74905;BME280;63465;50.862;6.220;2023-04-24T10:53:12;99075.63;;;10.95;91.67
74905;BME280;63465;50.862;6.220;2023-04-24T10:55:42;99083.84;;;10.46;93.11
74905;BME280;63465;50.862;6.220;2023-04-24T10:58:08;99083.16;;;10.58;94.29
74905;BME280;63465;50.862;6.220;2023-04-24T11:00:36;99077.91;;;10.26;93.52
74905;BME280;63465;50.862;6.220;2023-04-24T11:03:05;99090.44;;;10.23;94.35
74905;BME280;63465;50.862;6.220;2023-04-24T11:08:32;99089.03;;;10.33;91.40
74905;BME280;63465;50.862;6.220;2023-04-24T11:11:03;99096.19;;;10.31;92.75
74905;BME280;63465;50.862;6.220;2023-04-24T11:16:21;99083.16;;;10.58;92.50
74905;BME280;63465;50.862;6.220;2023-04-24T11:24:49;99103.63;;;11.30;89.34
74905;BME280;63465;50.862;6.220;2023-04-24T11:27:17;99101.25;;;11.11;90.12
74905;BME280;63465;50.862;6.220;2023-04-24T11:35:16;99118.03;;;10.66;90.92
74905;BME280;63465;50.862;6.220;2023-04-24T11:37:46;99115.41;;;10.81;89.27
74905;BME280;63465;50.862;6.220;2023-04-24T11:40:15;99130.09;;;11.17;87.54
74905;BME280;63465;50.862;6.220;2023-04-24T11:42:42;99125.06;;;11.12;86.52
74905;BME280;63465;50.862;6.220;2023-04-24T11:45:09;99132.09;;;11.56;86.56
74905;BME280;63465;50.862;6.220;2023-04-24T11:47:35;99131.16;;;11.29;85.68
74905;BME280;63465;50.862;6.220;2023-04-24T11:50:01;99135.97;;;11.22;85.29
74905;BME280;63465;50.862;6.220;2023-04-24T11:52:27;99139.31;;;11.26;83.67
74905;BME280;63465;50.862;6.220;2023-04-24T11:54:53;99140.06;;;11.56;83.58
74905;BME280;63465;50.862;6.220;2023-04-24T11:57:22;99139.41;;;11.38;82.83
74905;BME280;63465;50.862;6.220;2023-04-24T11:59:49;99144.50;;;11.56;81.87
74905;BME280;63465;50.862;6.220;2023-04-24T12:02:22;99149.56;;;11.32;79.92
74905;BME280;63465;50.862;6.220;2023-04-24T12:04:47;99147.56;;;11.35;79.13
74905;BME280;63465;50.862;6.220;2023-04-24T12:07:13;99158.38;;;11.32;78.39
74905;BME280;63465;50.862;6.220;2023-04-24T12:09:46;99150.91;;;11.09;79.08
74905;BME280;63465;50.862;6.220;2023-04-24T12:12:17;99158.97;;;11.07;80.58
74905;BME280;63465;50.862;6.220;2023-04-24T12:14:47;99158.13;;;11.06;81.31
74905;BME280;63465;50.862;6.220;2023-04-24T12:17:13;99163.34;;;10.94;81.47
74905;BME280;63465;50.862;6.220;2023-04-24T12:19:45;99160.22;;;11.01;81.81
74905;BME280;63465;50.862;6.220;2023-04-24T12:22:10;99165.28;;;10.90;82.94
74905;BME280;63465;50.862;6.220;2023-04-24T12:27:23;99166.78;;;10.80;82.46
74905;BME280;63465;50.862;6.220;2023-04-24T12:29:59;99172.22;;;10.93;83.08
74905;BME280;63465;50.862;6.220;2023-04-24T12:32:25;99168.63;;;10.94;83.75
74905;BME280;63465;50.862;6.220;2023-04-24T12:34:51;99175.38;;;10.99;84.55
74905;BME280;63465;50.862;6.220;2023-04-24T12:37:17;99174.88;;;11.81;80.30
74905;BME280;63465;50.862;6.220;2023-04-24T12:40:02;99169.66;;;11.79;78.81
74905;BME280;63465;50.862;6.220;2023-04-24T12:42:29;99172.81;;;11.42;80.71
74905;BME280;63465;50.862;6.220;2023-04-24T12:45:03;99175.78;;;11.07;81.67
74905;BME280;63465;50.862;6.220;2023-04-24T12:47:30;99177.66;;;11.05;82.04
74905;BME280;63465;50.862;6.220;2023-04-24T12:49:56;99182.59;;;11.12;81.39
74905;BME280;63465;50.862;6.220;2023-04-24T12:52:22;99183.75;;;11.22;81.18
74905;BME280;63465;50.862;6.220;2023-04-24T12:54:49;99186.25;;;11.25;80.76
74905;BME280;63465;50.862;6.220;2023-04-24T12:57:14;99179.25;;;11.38;80.40
74905;BME280;63465;50.862;6.220;2023-04-24T12:59:40;99188.94;;;11.39;80.25
74905;BME280;63465;50.862;6.220;2023-04-24T13:02:06;99185.22;;;11.42;79.63
74905;BME280;63465;50.862;6.220;2023-04-24T13:04:32;99189.81;;;11.10;78.88
74905;BME280;63465;50.862;6.220;2023-04-24T13:06:57;99192.91;;;11.02;79.97
74905;BME280;63465;50.862;6.220;2023-04-24T13:09:22;99201.06;;;11.29;79.57
74905;BME280;63465;50.862;6.220;2023-04-24T13:11:49;99202.97;;;11.27;79.26
74905;BME280;63465;50.862;6.220;2023-04-24T13:14:14;99193.47;;;11.37;78.69
74905;BME280;63465;50.862;6.220;2023-04-24T13:16:40;99202.25;;;11.09;77.60
74905;BME280;63465;50.862;6.220;2023-04-24T13:19:05;99194.81;;;11.59;75.86
74905;BME280;63465;50.862;6.220;2023-04-24T13:21:31;99199.09;;;11.47;73.27